x

Central Caribbean - 210 Nm Sse Of Kingston, Jamaica (42058) Wave Buoy

2:50am - Wed 1st Oct 2014 All times are EST. -5 hours from GMT.

  • Sig Wave height 7.9ft
  • Swell Direction
  • Peak Period 8s
  • Average Period 6s
  • Wind
    22mph, 27mph gusts
  • Sea Temp 84°f
  • Air Temp 84°f
  • Sea Pressure 1010.3mb
  • Central Caribbean - 210 Nm Sse Of Kingston, Jamaica
  • Central Caribbean - 210 Nm Sse Of Kingston, Jamaica

More Historic Weather Station data

Upgrade to MSW Pro to gain access to the past 30 days of data for over 8000 Wavebouys and Weather Stations around the globe.

Join Pro

Comparision Forecast

View Surf forecast
   
Wed 10/01 2:50am 8ft 8s 6s 22 27 mph 1010.3mb 84f 84f
1:50am 7ft 8s 5s 25 29 mph 1010.2mb 84f 84f
12:50am 7ft 8s 5s 25 29 mph 1010.6mb 84f 84f
Tue 09/30 11:50pm 7ft 6s 5s 25 29 mph 1010.9mb 84f 84f
10:50pm 7ft 8s 5s 25 29 mph 1011mb 84f 84f
9:50pm 7ft 8s 5s 25 31 mph 1011.2mb 84f 84f
8:50pm 7ft 8s 5s 25 29 mph 1011.1mb 84f 84f
7:50pm 7ft 8s 5s 27 31 mph 1010.5mb 84f 84f
6:50pm 6ft 8s 5s 22 27 mph 1010mb 85f 84f
5:50pm 6.5ft 8s 6s 22 27 mph 1009.6mb 85f 85f
4:50pm 6ft 8s 5s 22 25 mph 1009.5mb 84f 85f
3:50pm 6ft 8s 6s 22 25 mph 1009.3mb 85f 85f
2:50pm 6ft 7s 5s 18 25 mph 1009.5mb 85f 84f
1:50pm 6.5ft 8s 6s 18 22 mph 1009.9mb 85f 84f
12:50pm 6.5ft 8s 6s 20 25 mph 1010.4mb 84f 84f
11:50am 7ft 8s 5s 20 25 mph 1011.2mb 84f 84f
10:50am 7ft 8s 6s 20 25 mph 1011.6mb 84f 84f
9:50am 6ft 8s 5s 20 25 mph 1011.9mb 84f 84f
8:50am 7ft 8s 6s 20 25 mph 1011.6mb 84f 84f
7:50am 6ft 6s 5s 20 25 mph 1011.3mb 84f 84f
6:50am 6.5ft 8s 5s 22 25 mph 1011mb 84f 84f
5:50am 6ft 7s 5s 20 22 mph 1010.7mb 84f 84f
4:50am 6ft 8s 5s 18 22 mph 1010.3mb 84f 84f
3:50am 6.5ft 8s 6s 20 25 mph 1009.7mb 84f 84f
2:50am 6ft 8s 5s 20 22 mph 1009.6mb 84f 84f
1:50am 6ft 8s 5s 18 22 mph 1009.8mb 84f 84f
12:50am 6ft 8s 5s 20 25 mph 1010.3mb 84f 84f
Mon 09/29 11:50pm 5.5ft 8s 5s 20 22 mph 1010.6mb 84f 84f
10:50pm 5.5ft 8s 5s 18 22 mph 1011.1mb 84f 84f
9:50pm 5ft 7s 5s 22 25 mph 1011.3mb 84f 84f
8:50pm 5.5ft 8s 5s 18 22 mph 1011.1mb 84f 84f
7:50pm 5.5ft 8s 5s 20 25 mph 1010.6mb 84f 84f
6:50pm 5ft 7s 5s 20 22 mph 1009.8mb 84f 84f
5:50pm 5ft 8s 5s 18 22 mph 1009.3mb 84f 84f
4:50pm 5ft 8s 5s 18 22 mph 1009.2mb 84f 84f
3:50pm 5ft 8s 5s 18 20 mph 1009.2mb 84f 84f
2:50pm 5.5ft 7s 5s 16 20 mph 1009.5mb 84f 84f
1:50pm 5.5ft 8s 5s 16 20 mph 1010mb 84f 84f
12:50pm 5.5ft 7s 5s 16 20 mph 1010.8mb 84f 84f
11:50am 5.5ft 7s 5s 16 20 mph 1011.2mb 84f 84f
10:50am 5.5ft 7s 5s 18 20 mph 1011.9mb 84f 84f
9:50am 5.5ft 8s 5s 18 20 mph 1011.8mb 84f 84f
8:50am 5ft 7s 5s 18 20 mph 1011.5mb 84f 84f
7:50am 5ft 7s 5s 20 22 mph 1011mb 84f 84f
6:50am 5ft 7s 5s 18 22 mph 1010.6mb 84f 84f
5:50am 5ft 8s 5s 20 22 mph 1010.1mb 84f 84f
4:50am 5ft 7s 5s 18 20 mph 1009.7mb 84f 84f
3:50am 5ft 7s 5s 20 22 mph 1009.2mb 84f 84f
2:50am 5ft 7s 5s 16 20 mph 1009.2mb 84f 84f
1:50am 5ft 7s 5s 18 22 mph 1009.3mb 84f 84f
12:50am 5ft 8s 5s 20 22 mph 1009.6mb 84f 84f
Sun 09/28 11:50pm 5ft 7s 5s 20 22 mph 1010.3mb 84f 84f
10:50pm 5ft 7s 5s 20 22 mph 1010.7mb 84f 84f
9:50pm 5.5ft 7s 5s 18 22 mph 1010.8mb 84f 84f
8:50pm 5.5ft 7s 5s 18 20 mph 1010.6mb 84f 84f
7:50pm 5ft 6s 5s 18 22 mph 1010.3mb 84f 84f
6:50pm 5ft 7s 5s 20 25 mph 1009mb 84f 84f
5:50pm 4.5ft 6s 5s 18 22 mph 1008.4mb 84f 84f
4:50pm 4.5ft 6s 5s 18 22 mph 1008.8mb 84f 84f
3:50pm 4.5ft 6s 5s 18 20 mph 1009mb 84f 84f
2:50pm 4.5ft 6s 5s 16 18 mph 1009.4mb 84f 84f
12:50pm 4.5ft 5s 5s 16 20 mph 1011mb 84f 84f
11:50am 4.5ft 6s 5s 18 22 mph 1011.2mb 84f 83f
10:50am 4.5ft 6s 5s 20 22 mph 1011.7mb 84f 83f
9:50am 4.5ft 5s 5s 18 20 mph 1011.9mb 84f 84f
8:50am 4ft 5s 5s 16 20 mph 1011.7mb 84f 83f
7:50am 4ft 6s 4s 13 16 mph 1011.4mb 84f 80f
6:50am 4ft 5s 4s 18 20 mph 1010.6mb 84f 84f
5:50am 3.5ft 5s 4s 18 20 mph 1010mb 84f 84f
4:50am 3ft 5s 4s 16 18 mph 1009.6mb 84f 84f
3:50am 3.5ft 5s 4s 16 18 mph 1009.4mb 84f 84f
2:50am 3.5ft 5s 4s 16 18 mph 1009.4mb 84f 83f
1:50am 3ft 4s 4s 16 18 mph 1009.4mb 84f 84f
12:50am 3ft 5s 4s 16 18 mph 1009.8mb 84f 83f
Sat 09/27 11:50pm 3.5ft 4s 4s 16 20 mph 1010.4mb 84f 84f
10:50pm 3ft 4s 4s 16 20 mph 1010.9mb 84f 84f
9:50pm 2.5ft 4s 4s 16 20 mph 1010.7mb 84f 84f
8:50pm 2.5ft 4s 4s 18 20 mph 1010.4mb 84f 84f
7:50pm 2.5ft 6s 4s 16 18 mph 1009.5mb 84f 84f
6:50pm 2.5ft 6s 4s 16 18 mph 1009mb 85f 84f
5:50pm 2.5ft 6s 4s 13 16 mph 1008.3mb 85f 84f
4:50pm 2.5ft 6s 4s 13 16 mph 1007.9mb 85f 84f
3:50pm 2.5ft 6s 4s 13 16 mph 1007.9mb 85f 84f
2:50pm 2.5ft 6s 4s 13 16 mph 1008.5mb 85f 83f
1:50pm 2.5ft 5s 4s 13 16 mph 1009.3mb 85f 84f
12:50pm 2.5ft 6s 4s 16 18 mph 1009.9mb 85f 84f
11:50am 2.5ft 6s 4s 16 18 mph 1010.6mb 84f 84f
10:50am 2.5ft 5s 4s 16 18 mph 1011.5mb 84f 83f
9:50am 2.5ft 6s 5s 13 16 mph 1011.8mb 84f 84f
8:50am 2.5ft 6s 5s 9 11 mph 1011.5mb 84f 83f